Time;durP1;ratioP1;P1;durP2;ratioP2;P2;SDS_P1;SDS_P2;PMS_P1;PMS_P2;Temp;Humidity;BMP_temperature;BMP_pressure;BME280_temperature;BME280_humidity;BME280_pressure;Samples;Min_cycle;Max_cycle;Signal;HPM_P1;HPM_P2
2021/01/21 00:00:41;;;;;;;;;;;;;;;27.71;20.33;101475.19;5096802;28;1897;-36
2021/01/21 00:03:07;;;;;;;;;;;;;;;27.72;20.21;101477.72;5096636;28;878;-36
2021/01/21 00:05:32;;;;;;;;;;;;;;;27.97;19.85;101490.38;5096960;28;747;-32
2021/01/21 00:08:25;;;;;;;;;;;;;;;27.82;19.86;101477.53;5096859;28;969;-35
2021/01/21 00:10:51;;;;;;;;;;;;;;;27.26;21.09;101488.94;5096560;28;923;-31
2021/01/21 00:13:16;;;;;;;;;;;;;;;27.32;21.17;101480.19;5096164;28;787;-36
2021/01/21 00:15:41;;;;;;;;;;;;;;;27.30;20.86;101487.63;5096846;28;839;-35
2021/01/21 00:18:06;;;;;;;;;;;;;;;27.76;20.28;101489.00;5096390;28;1201;-31
2021/01/21 00:20:32;;;;;;;;;;;;;;;27.79;20.34;101487.84;5096656;28;1902;-35
2021/01/21 00:22:57;;;;;;;;;;;;;;;27.79;19.94;101490.56;5085830;28;1028;-36
2021/01/21 00:25:59;;;;;;;;;;;;;;;27.20;21.20;101482.38;5076450;28;776;-36
2021/01/21 00:28:37;;;;;;;;;;;;;;;27.77;20.32;101492.56;5076089;28;1298;-31
2021/01/21 00:31:02;;;;;;;;;;;;;;;27.80;20.27;101492.22;5057899;28;1170;-32
2021/01/21 00:33:27;;;;;;;;;;;;;;;27.85;20.04;101487.16;5076253;28;782;-36
2021/01/21 00:35:53;;;;;;;;;;;;;;;27.67;20.42;101490.00;5076087;28;827;-34
2021/01/21 00:38:18;;;;;;;;;;;;;;;27.15;21.38;101487.41;5089734;28;1024;-35
2021/01/21 00:40:43;;;;;;;;;;;;;;;27.42;21.02;101487.28;5095902;28;1914;-36
2021/01/21 00:43:09;;;;;;;;;;;;;;;27.58;20.85;101494.56;5096484;28;748;-36
2021/01/21 00:45:34;;;;;;;;;;;;;;;27.81;20.22;101488.53;5096509;28;796;-35
2021/01/21 00:47:59;;;;;;;;;;;;;;;27.49;20.64;101486.44;5096108;28;811;-35
2021/01/21 00:50:24;;;;;;;;;;;;;;;26.93;21.70;101487.00;5096512;28;808;-31
2021/01/21 00:52:50;;;;;;;;;;;;;;;27.30;21.26;101484.91;5096117;28;1001;-32
2021/01/21 00:55:21;;;;;;;;;;;;;;;27.51;20.98;101488.97;5096338;28;984;-30
2021/01/21 00:57:46;;;;;;;;;;;;;;;27.57;20.99;101490.19;5096493;28;787;-32
2021/01/21 01:00:12;;;;;;;;;;;;;;;27.72;20.44;101488.53;5096279;28;1910;-31
2021/01/21 01:02:37;;;;;;;;;;;;;;;27.70;20.56;101479.75;5096272;28;751;-30
2021/01/21 01:05:03;;;;;;;;;;;;;;;27.18;21.56;101486.22;5096705;28;737;-32
2021/01/21 01:07:29;;;;;;;;;;;;;;;27.50;21.15;101482.75;5096087;28;977;-30
2021/01/21 01:09:54;;;;;;;;;;;;;;;27.50;21.00;101480.06;5095743;28;906;-32
2021/01/21 01:12:19;;;;;;;;;;;;;;;27.74;20.64;101472.97;5096255;28;767;-33
2021/01/21 01:14:45;;;;;;;;;;;;;;;27.74;20.75;101480.25;5096401;28;743;-35
2021/01/21 01:17:10;;;;;;;;;;;;;;;26.94;21.98;101477.03;5095893;28;1258;-35
2021/01/21 01:19:35;;;;;;;;;;;;;;;27.10;21.86;101481.66;5095919;28;770;-35
2021/01/21 01:22:00;;;;;;;;;;;;;;;27.65;21.43;101486.63;5092801;28;1903;-32
2021/01/21 01:24:26;;;;;;;;;;;;;;;27.68;20.84;101487.16;5077669;28;831;-31
2021/01/21 01:26:51;;;;;;;;;;;;;;;27.80;20.62;101476.00;5079497;28;1164;-33
2021/01/21 01:29:19;;;;;;;;;;;;;;;27.59;21.07;101474.66;5079503;28;938;-33
2021/01/21 01:31:44;;;;;;;;;;;;;;;27.13;21.91;101478.63;5079303;28;894;-32
2021/01/21 01:34:09;;;;;;;;;;;;;;;27.16;21.87;101466.66;5079583;28;791;-32
2021/01/21 01:36:35;;;;;;;;;;;;;;;27.59;21.14;101472.75;5079379;28;751;-33
2021/01/21 01:39:00;;;;;;;;;;;;;;;27.85;20.86;101457.41;5098281;28;1017;-34
2021/01/21 01:41:28;;;;;;;;;;;;;;;27.73;20.72;101454.22;5099889;28;1910;-31
2021/01/21 01:43:54;;;;;;;;;;;;;;;26.82;22.14;101450.34;5099750;28;791;-32
2021/01/21 01:46:19;;;;;;;;;;;;;;;27.28;21.86;101449.13;5099002;28;863;-31
2021/01/21 01:48:44;;;;;;;;;;;;;;;27.51;21.62;101454.69;5099266;28;780;-33
2021/01/21 01:51:10;;;;;;;;;;;;;;;27.67;21.13;101454.88;5098534;28;751;-31
2021/01/21 01:53:35;;;;;;;;;;;;;;;27.69;20.97;101451.03;5098876;28;1008;-31
2021/01/21 01:56:00;;;;;;;;;;;;;;;27.64;21.20;101442.56;5099371;28;737;-32
2021/01/21 01:58:26;;;;;;;;;;;;;;;27.14;22.21;101453.34;5098112;28;779;-33
2021/01/21 02:00:52;;;;;;;;;;;;;;;27.25;22.18;101457.56;5098102;28;1957;-30
2021/01/21 02:03:18;;;;;;;;;;;;;;;27.23;22.29;101454.16;5099271;28;515;-32
2021/01/21 02:05:43;;;;;;;;;;;;;;;27.68;21.35;101456.56;5099138;28;790;-30
2021/01/21 02:08:09;;;;;;;;;;;;;;;27.67;21.12;101453.03;5098932;28;917;-32
2021/01/21 02:10:34;;;;;;;;;;;;;;;27.54;21.53;101449.97;5098807;28;866;-31
2021/01/21 02:13:15;;;;;;;;;;;;;;;27.21;22.36;101450.81;5097807;28;787;-30
2021/01/21 02:15:40;;;;;;;;;;;;;;;27.59;21.39;101444.91;5097293;28;894;-32
2021/01/21 02:18:13;;;;;;;;;;;;;;;27.68;21.34;101443.91;5098909;28;1205;-31
2021/01/21 02:21:08;;;;;;;;;;;;;;;27.69;21.05;101442.94;5097669;28;1901;-34
2021/01/21 02:23:42;;;;;;;;;;;;;;;26.88;22.32;101436.19;5010779;28;1245;-31
2021/01/21 02:26:13;;;;;;;;;;;;;;;27.08;22.39;101440.47;5078484;28;764;-31
2021/01/21 02:28:51;;;;;;;;;;;;;;;27.36;21.74;101441.00;5078505;28;1144;-35
2021/01/21 02:31:22;;;;;;;;;;;;;;;27.59;21.55;101444.91;5078362;28;882;-34
2021/01/21 02:33:54;;;;;;;;;;;;;;;27.69;21.13;101445.63;5078225;28;862;-30
2021/01/21 02:36:20;;;;;;;;;;;;;;;27.63;21.37;101451.66;5077022;28;750;-32
2021/01/21 02:38:45;;;;;;;;;;;;;;;27.50;21.91;101457.56;5095070;28;966;-32
2021/01/21 02:41:11;;;;;;;;;;;;;;;27.67;21.56;101462.97;5096879;28;2001;-32
2021/01/21 02:43:36;;;;;;;;;;;;;;;27.73;21.31;101463.19;5098535;28;756;-31
2021/01/21 02:46:01;;;;;;;;;;;;;;;27.82;21.17;101468.59;5098124;28;779;-32
2021/01/21 02:48:30;;;;;;;;;;;;;;;27.66;21.25;101469.41;5098400;28;866;-37
2021/01/21 02:50:58;;;;;;;;;;;;;;;27.04;22.40;101469.69;5097153;28;771;-34
2021/01/21 02:53:24;;;;;;;;;;;;;;;27.63;21.78;101475.97;5097556;28;954;-31
2021/01/21 02:56:02;;;;;;;;;;;;;;;27.46;21.83;101480.56;5097981;28;838;-32
2021/01/21 02:58:32;;;;;;;;;;;;;;;27.74;21.08;101472.97;5097973;28;826;-32
2021/01/21 03:00:58;;;;;;;;;;;;;;;27.61;21.56;101478.84;5097829;28;1905;-30
2021/01/21 03:03:23;;;;;;;;;;;;;;;27.02;22.35;101479.81;5098055;28;754;-33
2021/01/21 03:05:49;;;;;;;;;;;;;;;27.49;21.92;101482.91;5097244;28;746;-32
2021/01/21 03:08:33;;;;;;;;;;;;;;;27.57;21.95;101485.63;5096257;28;993;-32
2021/01/21 03:11:08;;;;;;;;;;;;;;;27.76;21.53;101472.78;5098248;28;755;-33
2021/01/21 03:13:34;;;;;;;;;;;;;;;27.17;22.28;101480.00;5097902;28;771;-33
2021/01/21 03:15:59;;;;;;;;;;;;;;;27.68;21.46;101479.06;5097106;28;813;-33
2021/01/21 03:18:24;;;;;;;;;;;;;;;27.54;21.56;101483.25;5097942;28;1110;-33
2021/01/21 03:20:50;;;;;;;;;;;;;;;26.81;22.71;101478.34;5097727;28;1909;-31
2021/01/21 03:23:15;;;;;;;;;;;;;;;27.54;21.84;101485.13;5084332;28;1000;-33
2021/01/21 03:26:02;;;;;;;;;;;;;;;27.81;21.43;101480.41;5077505;28;787;-31
2021/01/21 03:28:51;;;;;;;;;;;;;;;27.84;21.08;101480.06;5076920;28;1071;-32
2021/01/21 03:31:17;;;;;;;;;;;;;;;27.67;21.13;101487.31;5077536;28;771;-31
2021/01/21 03:33:42;;;;;;;;;;;;;;;27.39;21.76;101492.00;5076973;28;875;-34
2021/01/21 03:36:07;;;;;;;;;;;;;;;27.45;21.99;101487.81;5076830;28;847;-31
2021/01/21 03:38:32;;;;;;;;;;;;;;;27.28;22.02;101486.09;5092657;28;974;-35
2021/01/21 03:40:58;;;;;;;;;;;;;;;27.68;21.59;101491.69;5097389;28;1970;-32
2021/01/21 03:43:23;;;;;;;;;;;;;;;27.80;21.37;101486.81;5097004;28;839;-32
2021/01/21 03:45:48;;;;;;;;;;;;;;;27.68;21.52;101495.28;5097548;28;771;-34
2021/01/21 03:48:41;;;;;;;;;;;;;;;26.98;22.30;101481.94;5096425;28;827;-32
2021/01/21 03:51:06;;;;;;;;;;;;;;;27.59;22.01;101488.16;5096417;28;1227;-29
2021/01/21 03:53:31;;;;;;;;;;;;;;;27.45;20.33;101490.50;5096872;28;954;-31
2021/01/21 03:55:57;;;;;;;;;;;;;;;27.32;19.87;101484.75;5097567;28;743;-31
2021/01/21 03:58:22;;;;;;;;;;;;;;;25.74;22.30;101482.09;5096648;28;863;-36
2021/01/21 04:00:47;;;;;;;;;;;;;;;26.25;17.88;101489.50;5097124;28;1903;-30
2021/01/21 04:03:12;;;;;;;;;;;;;;;25.63;17.06;101488.53;5097283;28;866;-32
2021/01/21 04:05:38;;;;;;;;;;;;;;;25.09;18.11;101492.03;5096539;28;834;-23
2021/01/21 04:08:03;;;;;;;;;;;;;;;23.05;19.76;101491.88;5096971;28;942;-25
2021/01/21 04:10:28;;;;;;;;;;;;;;;23.58;19.73;101494.38;5096992;28;854;-28
2021/01/21 04:12:54;;;;;;;;;;;;;;;24.21;18.29;101502.97;5096528;28;735;-32
2021/01/21 04:15:19;;;;;;;;;;;;;;;23.92;18.19;101493.09;5096562;28;799;-28
2021/01/21 04:17:44;;;;;;;;;;;;;;;23.89;18.39;101499.59;5096275;28;1119;-27
2021/01/21 04:20:10;;;;;;;;;;;;;;;23.75;18.36;101505.41;5096555;28;1959;-24
2021/01/21 04:22:35;;;;;;;;;;;;;;;23.23;18.22;101502.78;5088671;28;911;-26
2021/01/21 04:25:00;;;;;;;;;;;;;;;23.53;18.04;101515.41;5076411;28;891;-26
2021/01/21 04:27:26;;;;;;;;;;;;;;;23.39;18.10;101514.81;5076180;28;1210;-32
2021/01/21 04:29:51;;;;;;;;;;;;;;;23.39;17.91;101513.97;5075794;28;840;-24
2021/01/21 04:32:16;;;;;;;;;;;;;;;23.60;18.10;101512.06;5076277;28;979;-27
2021/01/21 04:34:42;;;;;;;;;;;;;;;23.37;18.31;101514.13;5076064;28;766;-30
2021/01/21 04:37:07;;;;;;;;;;;;;;;23.97;18.80;101520.38;5079531;28;962;-30
2021/01/21 04:39:32;;;;;;;;;;;;;;;23.81;18.50;101520.94;5096561;28;815;-30
2021/01/21 04:41:57;;;;;;;;;;;;;;;23.93;17.91;101527.88;5096595;28;1975;-33
2021/01/21 04:44:23;;;;;;;;;;;;;;;23.69;17.23;101526.47;5095039;28;883;-29
2021/01/21 04:46:48;;;;;;;;;;;;;;;22.68;17.35;101521.94;5096454;28;794;-26
2021/01/21 04:49:29;;;;;;;;;;;;;;;23.00;17.30;101521.78;5096337;28;867;-30
2021/01/21 04:51:54;;;;;;;;;;;;;;;22.35;18.11;101519.34;5094758;28;961;-28
2021/01/21 04:54:23;;;;;;;;;;;;;;;22.26;17.92;101519.16;5095355;28;825;-29
2021/01/21 04:56:48;;;;;;;;;;;;;;;22.63;18.40;101527.72;5094696;28;1442;-27
2021/01/21 04:59:14;;;;;;;;;;;;;;;23.68;18.79;101523.91;5102144;28;1225;-32
2021/01/21 05:01:39;;;;;;;;;;;;;;;24.20;19.13;101531.72;5100846;28;1905;-23
2021/01/21 05:04:04;;;;;;;;;;;;;;;24.75;19.18;101531.97;5108658;28;1240;-33
2021/01/21 05:06:30;;;;;;;;;;;;;;;25.10;18.58;101532.25;5110091;28;1475;-33
2021/01/21 05:08:55;;;;;;;;;;;;;;;25.24;17.66;101528.19;5098015;28;981;-34
2021/01/21 05:11:21;;;;;;;;;;;;;;;25.05;18.44;101526.47;5100007;28;780;-28
2021/01/21 05:13:46;;;;;;;;;;;;;;;25.62;18.43;101527.25;5099931;28;803;-32
2021/01/21 05:16:11;;;;;;;;;;;;;;;25.71;18.20;101531.72;5100356;28;835;-29
2021/01/21 05:18:37;;;;;;;;;;;;;;;25.33;18.54;101525.59;5100517;28;1201;-32
2021/01/21 05:21:05;;;;;;;;;;;;;;;25.28;18.85;101521.53;5099784;28;1902;-29
2021/01/21 05:23:30;;;;;;;;;;;;;;;25.50;18.44;101523.94;5084545;28;1013;-34
2021/01/21 05:26:02;;;;;;;;;;;;;;;25.90;18.63;101530.72;5078921;28;882;-33
2021/01/21 05:28:27;;;;;;;;;;;;;;;26.06;18.71;101529.16;5079031;28;1268;-32
2021/01/21 05:30:53;;;;;;;;;;;;;;;26.01;19.13;101528.78;5077494;28;1234;-31
2021/01/21 05:33:18;;;;;;;;;;;;;;;26.17;19.08;101530.75;5079583;28;752;-34
2021/01/21 05:35:43;;;;;;;;;;;;;;;25.98;18.93;101532.63;5078011;28;1286;-29
2021/01/21 05:38:09;;;;;;;;;;;;;;;25.81;19.41;101542.44;5089953;28;1509;-31
2021/01/21 05:40:34;;;;;;;;;;;;;;;26.16;19.24;101537.13;5099522;28;1910;-31
2021/01/21 05:43:00;;;;;;;;;;;;;;;26.31;19.11;101536.59;5098039;28;1309;-31
2021/01/21 05:45:25;;;;;;;;;;;;;;;25.78;19.83;101543.59;5099577;28;791;-30
2021/01/21 05:47:57;;;;;;;;;;;;;;;25.28;20.79;101539.53;5099299;28;739;-30
2021/01/21 05:50:23;;;;;;;;;;;;;;;26.42;19.47;101549.84;5098882;28;699;-34
2021/01/21 05:52:48;;;;;;;;;;;;;;;26.24;19.36;101550.69;5099266;28;1004;-31
2021/01/21 05:55:13;;;;;;;;;;;;;;;26.09;19.45;101549.56;5099479;28;811;-32
2021/01/21 05:57:39;;;;;;;;;;;;;;;26.22;19.85;101552.72;5097912;28;779;-31
2021/01/21 06:00:04;;;;;;;;;;;;;;;26.56;19.25;101548.38;5096990;28;1960;-31
2021/01/21 06:02:30;;;;;;;;;;;;;;;26.50;19.41;101552.59;5099294;28;815;-33
2021/01/21 06:04:58;;;;;;;;;;;;;;;25.88;20.13;101556.13;5098880;28;846;-30
2021/01/21 06:07:24;;;;;;;;;;;;;;;26.62;19.57;101557.72;5098733;28;958;-28
2021/01/21 06:09:49;;;;;;;;;;;;;;;26.68;19.50;101561.59;5097028;28;1456;-33
2021/01/21 06:12:14;;;;;;;;;;;;;;;26.35;19.75;101554.16;5096508;28;1379;-33
2021/01/21 06:14:40;;;;;;;;;;;;;;;26.61;19.53;101558.72;5098932;28;801;-35
2021/01/21 06:17:06;;;;;;;;;;;;;;;26.24;20.10;101557.94;5098768;28;1187;-33
2021/01/21 06:19:31;;;;;;;;;;;;;;;25.96;20.54;101564.28;5098563;28;839;-32
2021/01/21 06:21:57;;;;;;;;;;;;;;;26.18;20.43;101564.81;5096107;28;1989;-34
2021/01/21 06:24:28;;;;;;;;;;;;;;;26.65;19.73;101566.34;5098769;28;823;-33
2021/01/21 06:27:00;;;;;;;;;;;;;;;26.47;19.88;101561.00;5097990;28;1059;-31
2021/01/21 06:29:27;;;;;;;;;;;;;;;26.35;20.32;101564.97;5097889;28;1134;-30
2021/01/21 06:31:52;;;;;;;;;;;;;;;26.25;20.50;101573.13;5098294;28;815;-31
2021/01/21 06:34:28;;;;;;;;;;;;;;;26.22;20.82;101568.91;5096815;28;859;-30
2021/01/21 06:36:56;;;;;;;;;;;;;;;26.08;21.58;101577.53;5094799;28;824;-32
2021/01/21 06:39:38;;;;;;;;;;;;;;;26.53;20.68;101576.56;5098387;28;827;-29
2021/01/21 06:42:03;;;;;;;;;;;;;;;26.50;20.76;101578.72;5096484;28;1989;-40
2021/01/21 06:44:29;;;;;;;;;;;;;;;26.66;20.30;101577.97;5097389;28;782;-32
2021/01/21 06:46:54;;;;;;;;;;;;;;;26.68;20.32;101577.78;5097162;28;751;-38
2021/01/21 06:49:19;;;;;;;;;;;;;;;26.64;20.70;101583.53;5096942;28;794;-29
2021/01/21 06:51:45;;;;;;;;;;;;;;;26.67;20.56;101581.50;5097030;28;997;-31
2021/01/21 06:54:11;;;;;;;;;;;;;;;26.80;20.14;101583.78;5098232;28;775;-29
2021/01/21 06:57:01;;;;;;;;;;;;;;;26.86;20.31;101588.56;5096757;28;743;-32
2021/01/21 06:59:55;;;;;;;;;;;;;;;26.71;20.51;101591.00;5097256;28;656;-29
2021/01/21 07:02:39;;;;;;;;;;;;;;;26.60;20.80;101582.16;5075043;28;1976;-29
2021/01/21 07:05:08;;;;;;;;;;;;;;;26.82;20.29;101584.47;5097342;28;827;-34
2021/01/21 07:10:41;;;;;;;;;;;;;;;26.72;20.31;101581.88;5083205;28;812;-32
2021/01/21 07:13:07;;;;;;;;;;;;;;;27.02;20.12;101577.00;5097435;28;818;-37
2021/01/21 07:15:33;;;;;;;;;;;;;;;27.10;20.15;101578.88;5097782;28;740;-36
2021/01/21 07:18:02;;;;;;;;;;;;;;;26.99;20.50;101588.94;5097568;28;1154;-32
2021/01/21 07:20:29;;;;;;;;;;;;;;;26.86;20.60;101589.38;5097668;28;1894;-35
2021/01/21 07:22:57;;;;;;;;;;;;;;;27.02;19.96;101593.22;5085349;28;954;-33
2021/01/21 07:25:26;;;;;;;;;;;;;;;27.10;20.27;101595.09;5076053;28;1437;-37
2021/01/21 07:27:52;;;;;;;;;;;;;;;27.01;20.16;101592.34;5073109;28;1126;-38
2021/01/21 07:30:35;;;;;;;;;;;;;;;26.95;20.37;101598.38;5076120;28;1525;-44
2021/01/21 07:33:20;;;;;;;;;;;;;;;27.14;19.92;101597.28;5075013;28;871;-31
2021/01/21 07:35:45;;;;;;;;;;;;;;;27.36;20.26;101597.72;5076498;28;839;-42
2021/01/21 07:38:10;;;;;;;;;;;;;;;27.41;20.05;101588.28;5089532;28;962;-29
2021/01/21 07:40:46;;;;;;;;;;;;;;;27.45;20.48;101593.19;5097075;28;1963;-33
2021/01/21 07:43:11;;;;;;;;;;;;;;;26.51;19.57;101588.50;5097329;28;743;-31
2021/01/21 07:45:37;;;;;;;;;;;;;;;26.67;19.87;101593.16;5096058;28;767;-35
2021/01/21 07:48:21;;;;;;;;;;;;;;;27.20;19.71;101597.66;5096960;28;743;-34
2021/01/21 07:50:49;;;;;;;;;;;;;;;27.91;19.10;101597.34;5094722;28;768;-38
2021/01/21 07:53:19;;;;;;;;;;;;;;;28.15;18.70;101589.41;5082626;28;946;-40
2021/01/21 07:56:06;;;;;;;;;;;;;;;28.26;19.29;101589.03;5076004;28;826;-31
2021/01/21 07:58:38;;;;;;;;;;;;;;;28.46;19.10;101588.75;5077086;28;779;-33
2021/01/21 08:01:09;;;;;;;;;;;;;;;28.16;18.97;101593.81;5076368;28;1898;-40
2021/01/21 08:03:38;;;;;;;;;;;;;;;28.12;19.16;101585.19;5075851;28;800;-37
2021/01/21 08:06:06;;;;;;;;;;;;;;;28.41;19.07;101583.00;5076735;28;835;-34
2021/01/21 08:08:32;;;;;;;;;;;;;;;28.64;19.54;101591.25;5092025;28;1016;-31
2021/01/21 08:11:01;;;;;;;;;;;;;;;28.66;19.00;101588.34;5096648;28;767;-32
2021/01/21 08:13:27;;;;;;;;;;;;;;;28.72;18.99;101595.78;5096812;28;787;-32
2021/01/21 08:15:53;;;;;;;;;;;;;;;28.77;19.44;101590.69;5096821;28;834;-32
2021/01/21 08:18:18;;;;;;;;;;;;;;;28.86;19.33;101594.22;5095993;28;1106;-35
2021/01/21 08:20:43;;;;;;;;;;;;;;;28.88;19.34;101594.88;5096975;28;1894;-35
2021/01/21 08:23:09;;;;;;;;;;;;;;;28.94;19.24;101596.06;5084215;28;953;-35
2021/01/21 08:25:44;;;;;;;;;;;;;;;28.98;19.29;101602.00;5075412;28;816;-34
2021/01/21 08:28:09;;;;;;;;;;;;;;;29.16;19.02;101599.88;5076424;28;1185;-33
2021/01/21 08:30:35;;;;;;;;;;;;;;;29.09;19.29;101598.91;5076199;28;739;-33
2021/01/21 08:33:06;;;;;;;;;;;;;;;29.11;19.26;101593.31;5075709;28;793;-31
2021/01/21 08:35:33;;;;;;;;;;;;;;;28.84;18.74;101590.84;5075819;28;760;-38
2021/01/21 08:37:58;;;;;;;;;;;;;;;28.84;18.51;101588.94;5086923;28;958;-33
2021/01/21 08:40:24;;;;;;;;;;;;;;;28.79;18.74;101593.22;5095781;28;1973;-31
2021/01/21 08:42:49;;;;;;;;;;;;;;;28.81;18.63;101592.00;5096592;28;726;-36
2021/01/21 08:45:15;;;;;;;;;;;;;;;28.70;18.72;101590.53;5095171;28;755;-39
2021/01/21 08:50:44;;;;;;;;;;;;;;;28.71;18.51;101586.81;5096132;28;585;-32
2021/01/21 08:53:10;;;;;;;;;;;;;;;28.60;19.15;101582.63;5095899;28;949;-35
2021/01/21 08:55:38;;;;;;;;;;;;;;;28.61;18.96;101578.06;5096039;28;854;-38
2021/01/21 08:58:04;;;;;;;;;;;;;;;28.56;19.13;101575.84;5095890;28;759;-33
2021/01/21 09:00:29;;;;;;;;;;;;;;;28.57;18.90;101571.28;5096138;28;1963;-37
2021/01/21 09:02:55;;;;;;;;;;;;;;;28.60;18.93;101570.94;5096022;28;775;-37
2021/01/21 09:05:21;;;;;;;;;;;;;;;28.58;19.00;101571.09;5095949;28;997;-33
2021/01/21 09:07:47;;;;;;;;;;;;;;;28.63;18.96;101565.16;5095861;28;930;-29
2021/01/21 09:10:12;;;;;;;;;;;;;;;28.68;18.66;101559.22;5095150;28;839;-32
2021/01/21 09:12:38;;;;;;;;;;;;;;;28.66;18.78;101564.00;5096160;28;739;-36
2021/01/21 09:15:03;;;;;;;;;;;;;;;28.71;18.44;101556.19;5095309;28;822;-35
2021/01/21 09:17:29;;;;;;;;;;;;;;;28.23;19.12;101551.50;5095926;28;1118;-39
2021/01/21 09:19:55;;;;;;;;;;;;;;;28.13;19.30;101554.41;5095088;28;783;-31
2021/01/21 09:22:22;;;;;;;;;;;;;;;28.05;19.27;101549.84;5090479;28;1902;-30
2021/01/21 09:24:55;;;;;;;;;;;;;;;27.97;19.29;101541.75;5075742;28;776;-36
2021/01/21 09:27:29;;;;;;;;;;;;;;;27.95;19.55;101541.06;5075706;28;1032;-31
2021/01/21 09:29:58;;;;;;;;;;;;;;;28.02;19.30;101541.22;5075854;28;836;-33
2021/01/21 09:32:25;;;;;;;;;;;;;;;28.01;19.15;101536.84;5075661;28;771;-34
2021/01/21 09:35:02;;;;;;;;;;;;;;;28.03;19.10;101535.66;5075829;28;783;-34
2021/01/21 09:37:32;;;;;;;;;;;;;;;28.06;19.31;101529.06;5082081;28;1036;-37
2021/01/21 09:39:57;;;;;;;;;;;;;;;28.02;19.26;101531.25;5095156;28;810;-30
2021/01/21 09:42:23;;;;;;;;;;;;;;;27.99;19.22;101521.63;5095717;28;1918;-32
2021/01/21 09:44:48;;;;;;;;;;;;;;;27.95;19.44;101519.44;5096002;28;763;-36
2021/01/21 09:47:14;;;;;;;;;;;;;;;27.97;19.52;101518.25;5098396;28;745;-37
2021/01/21 09:49:42;;;;;;;;;;;;;;;27.87;19.33;101521.16;5099428;28;763;-29
2021/01/21 09:52:08;;;;;;;;;;;;;;;27.73;19.75;101511.84;5095532;28;1028;-26
2021/01/21 09:54:33;;;;;;;;;;;;;;;27.72;19.50;101510.16;5089290;28;1320;-37
2021/01/21 09:56:58;;;;;;;;;;;;;;;27.57;19.71;101511.78;5079222;28;768;-29
2021/01/21 09:59:24;;;;;;;;;;;;;;;27.47;19.95;101504.72;5078836;28;871;-36
2021/01/21 10:01:49;;;;;;;;;;;;;;;27.45;19.91;101504.03;5078092;28;1963;-36
2021/01/21 10:04:15;;;;;;;;;;;;;;;27.43;20.06;101494.38;5078879;28;891;-37
2021/01/21 10:06:40;;;;;;;;;;;;;;;27.33;20.25;101483.72;5078469;28;965;-38
2021/01/21 10:09:05;;;;;;;;;;;;;;;27.39;19.76;101485.78;5098561;28;935;-37
2021/01/21 10:11:31;;;;;;;;;;;;;;;27.25;19.83;101479.16;5099031;28;863;-36
2021/01/21 10:13:56;;;;;;;;;;;;;;;27.55;19.88;101474.13;5098898;28;780;-32
2021/01/21 10:16:21;;;;;;;;;;;;;;;27.54;19.77;101468.91;5098341;28;799;-34
2021/01/21 10:18:46;;;;;;;;;;;;;;;27.35;20.26;101465.50;5099033;28;1095;-35
2021/01/21 10:21:12;;;;;;;;;;;;;;;27.36;20.06;101462.63;5098470;28;1913;-31
2021/01/21 10:23:37;;;;;;;;;;;;;;;27.31;19.94;101456.88;5082400;28;949;-35
2021/01/21 10:26:02;;;;;;;;;;;;;;;27.27;20.04;101455.53;5078430;28;789;-32
2021/01/21 10:28:28;;;;;;;;;;;;;;;27.19;19.88;101452.81;5078333;28;1074;-36
2021/01/21 10:30:53;;;;;;;;;;;;;;;27.15;20.00;101441.50;5078405;28;759;-31
2021/01/21 10:33:19;;;;;;;;;;;;;;;27.06;20.06;101443.34;5078825;28;744;-32
2021/01/21 10:35:44;;;;;;;;;;;;;;;26.94;20.02;101429.31;5078256;28;759;-33
2021/01/21 10:38:09;;;;;;;;;;;;;;;26.90;20.17;101422.53;5090243;28;1000;-32
2021/01/21 10:40:34;;;;;;;;;;;;;;;27.06;20.50;101423.63;5098265;28;1898;-37
2021/01/21 10:43:00;;;;;;;;;;;;;;;27.09;20.49;101417.88;5097858;28;855;-34
2021/01/21 10:45:25;;;;;;;;;;;;;;;27.12;20.93;101422.94;5097792;28;767;-36
2021/01/21 10:47:50;;;;;;;;;;;;;;;27.23;20.71;101419.06;5098523;28;804;-30
2021/01/21 10:50:15;;;;;;;;;;;;;;;26.90;21.00;101409.03;5097918;28;810;-34
2021/01/21 10:52:41;;;;;;;;;;;;;;;27.21;20.60;101411.13;5097019;28;961;-34
2021/01/21 10:55:06;;;;;;;;;;;;;;;27.35;20.61;101403.38;5097770;28;787;-34
2021/01/21 10:57:31;;;;;;;;;;;;;;;27.39;20.65;101402.84;5097565;28;727;-27
2021/01/21 10:59:57;;;;;;;;;;;;;;;27.34;20.68;101399.00;5098258;28;795;-34
2021/01/21 11:02:22;;;;;;;;;;;;;;;27.18;20.80;101395.25;5097829;28;1967;-31
2021/01/21 11:04:47;;;;;;;;;;;;;;;27.37;20.73;101393.25;5098016;28;851;-31
2021/01/21 11:07:13;;;;;;;;;;;;;;;27.30;20.54;101389.53;5097658;28;830;-35
2021/01/21 11:09:39;;;;;;;;;;;;;;;27.20;20.61;101393.25;5097505;28;775;-38
2021/01/21 11:12:05;;;;;;;;;;;;;;;27.33;20.74;101381.94;5097700;28;827;-37
2021/01/21 11:14:30;;;;;;;;;;;;;;;27.36;20.66;101378.06;5098440;28;785;-32
2021/01/21 11:16:56;;;;;;;;;;;;;;;27.42;20.44;101376.53;5097185;28;1078;-28
2021/01/21 11:19:21;;;;;;;;;;;;;;;27.23;20.60;101371.28;5097744;28;873;-31
2021/01/21 11:21:46;;;;;;;;;;;;;;;27.36;20.42;101362.66;5097732;28;1906;-37
2021/01/21 11:24:11;;;;;;;;;;;;;;;27.41;20.41;101358.63;5097326;28;839;-31
2021/01/21 11:29:32;;;;;;;;;;;;;;;27.08;20.82;101351.34;5095322;28;1012;-32
2021/01/21 11:31:58;;;;;;;;;;;;;;;27.32;20.63;101346.97;5096977;28;790;-30
2021/01/21 11:34:24;;;;;;;;;;;;;;;27.39;20.28;101346.13;5097608;28;771;-29
2021/01/21 11:36:50;;;;;;;;;;;;;;;27.08;21.07;101351.34;5097191;28;965;-32
2021/01/21 11:39:15;;;;;;;;;;;;;;;27.39;20.85;101353.41;5096889;28;831;-38
2021/01/21 11:41:40;;;;;;;;;;;;;;;27.43;20.58;101346.63;5096818;28;1975;-31
2021/01/21 11:44:06;;;;;;;;;;;;;;;27.09;21.09;101343.09;5096966;28;826;-33
2021/01/21 11:46:31;;;;;;;;;;;;;;;27.35;20.80;101344.78;5096749;28;897;-28
2021/01/21 11:48:56;;;;;;;;;;;;;;;27.43;20.55;101337.66;5096709;28;763;-36
2021/01/21 11:51:22;;;;;;;;;;;;;;;27.39;20.62;101342.59;5096666;28;822;-29
2021/01/21 11:53:47;;;;;;;;;;;;;;;27.12;20.86;101331.97;5096720;28;1004;-23
2021/01/21 11:56:12;;;;;;;;;;;;;;;27.33;20.66;101338.69;5096958;28;787;-32
2021/01/21 11:58:37;;;;;;;;;;;;;;;27.45;20.46;101335.66;5097024;28;772;-32
2021/01/21 12:01:03;;;;;;;;;;;;;;;27.30;20.79;101336.34;5096575;28;1965;-36
2021/01/21 12:03:29;;;;;;;;;;;;;;;27.37;20.48;101331.09;5097141;28;855;-39
2021/01/21 12:05:54;;;;;;;;;;;;;;;27.32;20.57;101322.66;5096510;28;800;-36
2021/01/21 12:08:20;;;;;;;;;;;;;;;27.07;20.92;101323.53;5095502;28;930;-29
2021/01/21 12:10:45;;;;;;;;;;;;;;;27.38;20.56;101320.13;5096925;28;829;-39
2021/01/21 12:13:11;;;;;;;;;;;;;;;27.46;20.70;101323.84;5096413;28;812;-29
2021/01/21 12:15:36;;;;;;;;;;;;;;;27.00;21.00;101323.31;5096620;28;727;-38
2021/01/21 12:18:02;;;;;;;;;;;;;;;27.14;20.36;101323.69;5096341;28;1209;-32
2021/01/21 12:20:27;;;;;;;;;;;;;;;27.44;20.46;101324.03;5096287;28;1952;-31
2021/01/21 12:22:52;;;;;;;;;;;;;;;27.23;20.65;101321.81;5086275;28;946;-32
2021/01/21 12:25:18;;;;;;;;;;;;;;;27.39;20.60;101329.91;5076410;28;784;-25
2021/01/21 12:28:01;;;;;;;;;;;;;;;27.33;20.08;101324.34;5075981;28;768;-36
2021/01/21 12:30:27;;;;;;;;;;;;;;;27.21;20.99;101327.41;5075974;28;764;-35
2021/01/21 12:32:52;;;;;;;;;;;;;;;27.28;20.51;101324.84;5075569;28;800;-31
2021/01/21 12:35:17;;;;;;;;;;;;;;;27.25;20.02;101323.34;5075602;28;823;-32
2021/01/21 12:37:43;;;;;;;;;;;;;;;27.09;20.63;101323.38;5084192;28;1017;-31
2021/01/21 12:40:08;;;;;;;;;;;;;;;26.84;21.12;101315.22;5095808;28;964;-29
2021/01/21 12:42:34;;;;;;;;;;;;;;;26.96;20.93;101316.56;5096287;28;1974;-34
2021/01/21 12:44:59;;;;;;;;;;;;;;;26.98;20.71;101316.41;5096333;28;783;-32
2021/01/21 12:47:24;;;;;;;;;;;;;;;26.81;21.19;101319.09;5096387;28;850;-31
2021/01/21 12:49:49;;;;;;;;;;;;;;;27.06;20.87;101312.91;5096812;28;818;-33
2021/01/21 12:52:15;;;;;;;;;;;;;;;27.07;20.93;101315.44;5095486;28;1203;-34
2021/01/21 12:54:42;;;;;;;;;;;;;;;27.28;20.85;101319.47;5096261;28;803;-31
2021/01/21 12:57:20;;;;;;;;;;;;;;;27.12;20.69;101325.72;5096399;28;800;-28
2021/01/21 12:59:45;;;;;;;;;;;;;;;27.07;21.11;101318.13;5095939;28;784;-26
2021/01/21 13:02:11;;;;;;;;;;;;;;;27.20;20.96;101317.63;5095469;28;1909;-29